sensor_id;sensor_type;location;lat;lon;timestamp;temperature;humidity
58865;DHT22;45702;52.982;6.658;2023-04-24T00:00:55;11.00;99.90
58865;DHT22;45702;52.982;6.658;2023-04-24T00:03:26;11.00;99.90
58865;DHT22;45702;52.982;6.658;2023-04-24T00:05:55;10.90;99.90
58865;DHT22;45702;52.982;6.658;2023-04-24T00:08:21;10.90;99.90
58865;DHT22;45702;52.982;6.658;2023-04-24T00:10:49;10.80;99.90
58865;DHT22;45702;52.982;6.658;2023-04-24T00:13:15;10.90;99.90
58865;DHT22;45702;52.982;6.658;2023-04-24T00:15:40;10.80;99.90
58865;DHT22;45702;52.982;6.658;2023-04-24T00:18:06;10.60;99.90
58865;DHT22;45702;52.982;6.658;2023-04-24T00:20:32;10.80;99.90
58865;DHT22;45702;52.982;6.658;2023-04-24T00:23:03;10.80;99.90
58865;DHT22;45702;52.982;6.658;2023-04-24T00:25:29;10.70;99.90
58865;DHT22;45702;52.982;6.658;2023-04-24T00:27:54;10.80;99.90
58865;DHT22;45702;52.982;6.658;2023-04-24T00:30:20;10.70;99.90
58865;DHT22;45702;52.982;6.658;2023-04-24T00:32:46;10.70;99.90
58865;DHT22;45702;52.982;6.658;2023-04-24T00:35:12;10.70;99.90
58865;DHT22;45702;52.982;6.658;2023-04-24T00:37:37;10.70;99.90
58865;DHT22;45702;52.982;6.658;2023-04-24T00:40:03;10.80;99.90
58865;DHT22;45702;52.982;6.658;2023-04-24T00:42:29;10.70;99.90
58865;DHT22;45702;52.982;6.658;2023-04-24T00:44:56;10.60;99.90
58865;DHT22;45702;52.982;6.658;2023-04-24T00:47:22;10.70;99.90
58865;DHT22;45702;52.982;6.658;2023-04-24T00:49:47;10.70;99.90
58865;DHT22;45702;52.982;6.658;2023-04-24T00:52:13;10.80;99.90
58865;DHT22;45702;52.982;6.658;2023-04-24T00:54:43;10.70;99.90
58865;DHT22;45702;52.982;6.658;2023-04-24T00:57:09;10.80;99.90
58865;DHT22;45702;52.982;6.658;2023-04-24T00:59:35;10.70;99.90
58865;DHT22;45702;52.982;6.658;2023-04-24T01:02:02;10.50;99.90
58865;DHT22;45702;52.982;6.658;2023-04-24T01:04:27;10.50;99.90
58865;DHT22;45702;52.982;6.658;2023-04-24T01:06:54;10.50;99.90
58865;DHT22;45702;52.982;6.658;2023-04-24T01:09:23;10.50;99.90
58865;DHT22;45702;52.982;6.658;2023-04-24T01:11:49;10.50;99.90
58865;DHT22;45702;52.982;6.658;2023-04-24T01:14:15;10.50;99.90
58865;DHT22;45702;52.982;6.658;2023-04-24T01:16:41;10.40;99.90
58865;DHT22;45702;52.982;6.658;2023-04-24T01:19:07;10.50;99.90
58865;DHT22;45702;52.982;6.658;2023-04-24T01:21:36;10.50;99.90
58865;DHT22;45702;52.982;6.658;2023-04-24T01:24:03;10.40;99.90
58865;DHT22;45702;52.982;6.658;2023-04-24T01:26:29;10.40;99.90
58865;DHT22;45702;52.982;6.658;2023-04-24T01:28:56;10.40;99.90
58865;DHT22;45702;52.982;6.658;2023-04-24T01:31:21;10.40;99.90
58865;DHT22;45702;52.982;6.658;2023-04-24T01:33:47;10.50;99.90
58865;DHT22;45702;52.982;6.658;2023-04-24T01:36:13;10.50;99.90
58865;DHT22;45702;52.982;6.658;2023-04-24T01:38:39;10.50;99.90
58865;DHT22;45702;52.982;6.658;2023-04-24T01:41:05;10.50;99.90
58865;DHT22;45702;52.982;6.658;2023-04-24T01:43:31;10.50;99.90
58865;DHT22;45702;52.982;6.658;2023-04-24T01:45:57;10.40;99.90
58865;DHT22;45702;52.982;6.658;2023-04-24T01:48:23;10.50;99.90
58865;DHT22;45702;52.982;6.658;2023-04-24T01:50:49;10.50;99.90
58865;DHT22;45702;52.982;6.658;2023-04-24T01:53:15;10.60;99.90
58865;DHT22;45702;52.982;6.658;2023-04-24T01:55:41;10.50;99.90
58865;DHT22;45702;52.982;6.658;2023-04-24T01:58:07;10.50;99.90
58865;DHT22;45702;52.982;6.658;2023-04-24T02:00:32;10.50;99.90
58865;DHT22;45702;52.982;6.658;2023-04-24T02:02:58;10.50;99.90
58865;DHT22;45702;52.982;6.658;2023-04-24T02:05:24;10.40;99.90
58865;DHT22;45702;52.982;6.658;2023-04-24T02:07:49;10.40;99.90
58865;DHT22;45702;52.982;6.658;2023-04-24T02:10:15;10.40;99.90
58865;DHT22;45702;52.982;6.658;2023-04-24T02:12:41;10.40;99.90
58865;DHT22;45702;52.982;6.658;2023-04-24T02:15:07;10.40;99.90
58865;DHT22;45702;52.982;6.658;2023-04-24T02:17:32;10.50;99.90
58865;DHT22;45702;52.982;6.658;2023-04-24T02:19:58;10.50;99.90
58865;DHT22;45702;52.982;6.658;2023-04-24T02:22:24;10.40;99.90
58865;DHT22;45702;52.982;6.658;2023-04-24T02:24:50;10.40;99.90
58865;DHT22;45702;52.982;6.658;2023-04-24T02:27:15;10.40;99.90
58865;DHT22;45702;52.982;6.658;2023-04-24T02:29:41;10.40;99.90
58865;DHT22;45702;52.982;6.658;2023-04-24T02:32:07;10.40;99.90
58865;DHT22;45702;52.982;6.658;2023-04-24T02:34:36;10.40;99.90
58865;DHT22;45702;52.982;6.658;2023-04-24T02:37:02;10.40;99.90
58865;DHT22;45702;52.982;6.658;2023-04-24T02:39:27;10.40;99.90
58865;DHT22;45702;52.982;6.658;2023-04-24T02:41:53;10.30;99.90
58865;DHT22;45702;52.982;6.658;2023-04-24T02:44:19;10.30;99.90
58865;DHT22;45702;52.982;6.658;2023-04-24T02:46:45;10.30;99.90
58865;DHT22;45702;52.982;6.658;2023-04-24T02:49:10;10.20;99.90
58865;DHT22;45702;52.982;6.658;2023-04-24T02:51:37;10.30;99.90
58865;DHT22;45702;52.982;6.658;2023-04-24T02:54:07;10.30;99.90
58865;DHT22;45702;52.982;6.658;2023-04-24T02:56:33;10.20;99.90
58865;DHT22;45702;52.982;6.658;2023-04-24T02:58:59;10.20;99.90
58865;DHT22;45702;52.982;6.658;2023-04-24T03:01:24;10.20;99.90
58865;DHT22;45702;52.982;6.658;2023-04-24T03:03:50;10.30;99.90
58865;DHT22;45702;52.982;6.658;2023-04-24T03:06:16;10.20;99.90
58865;DHT22;45702;52.982;6.658;2023-04-24T03:08:41;10.20;99.90
58865;DHT22;45702;52.982;6.658;2023-04-24T03:11:07;10.20;99.90
58865;DHT22;45702;52.982;6.658;2023-04-24T03:13:33;10.10;99.90
58865;DHT22;45702;52.982;6.658;2023-04-24T03:15:58;10.20;99.90
58865;DHT22;45702;52.982;6.658;2023-04-24T03:18:24;10.20;99.90
58865;DHT22;45702;52.982;6.658;2023-04-24T03:20:50;10.10;99.90
58865;DHT22;45702;52.982;6.658;2023-04-24T03:23:16;10.10;99.90
58865;DHT22;45702;52.982;6.658;2023-04-24T03:25:42;10.10;99.90
58865;DHT22;45702;52.982;6.658;2023-04-24T03:28:08;10.10;99.90
58865;DHT22;45702;52.982;6.658;2023-04-24T03:30:34;10.10;99.90
58865;DHT22;45702;52.982;6.658;2023-04-24T03:33:00;10.10;99.90
58865;DHT22;45702;52.982;6.658;2023-04-24T03:35:26;10.00;99.90
58865;DHT22;45702;52.982;6.658;2023-04-24T03:37:52;10.10;99.90
58865;DHT22;45702;52.982;6.658;2023-04-24T03:40:17;10.10;99.90
58865;DHT22;45702;52.982;6.658;2023-04-24T03:42:43;10.00;99.90
58865;DHT22;45702;52.982;6.658;2023-04-24T03:45:09;10.10;99.90
58865;DHT22;45702;52.982;6.658;2023-04-24T03:47:35;10.00;99.90
58865;DHT22;45702;52.982;6.658;2023-04-24T03:50:01;10.00;99.90
58865;DHT22;45702;52.982;6.658;2023-04-24T03:52:26;10.10;99.90
58865;DHT22;45702;52.982;6.658;2023-04-24T03:54:52;10.00;99.90
58865;DHT22;45702;52.982;6.658;2023-04-24T03:57:17;10.00;99.90
58865;DHT22;45702;52.982;6.658;2023-04-24T03:59:43;10.10;99.90
58865;DHT22;45702;52.982;6.658;2023-04-24T04:02:09;10.10;99.90
58865;DHT22;45702;52.982;6.658;2023-04-24T04:04:34;10.00;99.90
58865;DHT22;45702;52.982;6.658;2023-04-24T04:07:00;10.00;99.90
58865;DHT22;45702;52.982;6.658;2023-04-24T04:09:30;10.00;99.90
58865;DHT22;45702;52.982;6.658;2023-04-24T04:11:56;10.00;99.90
58865;DHT22;45702;52.982;6.658;2023-04-24T04:14:22;10.00;99.90
58865;DHT22;45702;52.982;6.658;2023-04-24T04:16:48;10.00;99.90
58865;DHT22;45702;52.982;6.658;2023-04-24T04:19:14;9.80;99.90
58865;DHT22;45702;52.982;6.658;2023-04-24T04:21:40;9.90;99.90
58865;DHT22;45702;52.982;6.658;2023-04-24T04:24:06;9.80;99.90
58865;DHT22;45702;52.982;6.658;2023-04-24T04:26:32;9.80;99.90
58865;DHT22;45702;52.982;6.658;2023-04-24T04:29:01;9.90;99.90
58865;DHT22;45702;52.982;6.658;2023-04-24T04:31:28;9.80;99.90
58865;DHT22;45702;52.982;6.658;2023-04-24T04:33:54;9.90;99.90
58865;DHT22;45702;52.982;6.658;2023-04-24T04:36:20;9.90;99.90
58865;DHT22;45702;52.982;6.658;2023-04-24T04:38:46;9.90;99.90
58865;DHT22;45702;52.982;6.658;2023-04-24T04:41:11;9.80;99.90
58865;DHT22;45702;52.982;6.658;2023-04-24T04:43:37;9.90;99.90
58865;DHT22;45702;52.982;6.658;2023-04-24T04:46:05;9.90;99.90
58865;DHT22;45702;52.982;6.658;2023-04-24T04:48:30;9.90;99.90
58865;DHT22;45702;52.982;6.658;2023-04-24T04:50:57;9.90;99.90
58865;DHT22;45702;52.982;6.658;2023-04-24T04:53:23;9.90;99.90
58865;DHT22;45702;52.982;6.658;2023-04-24T04:55:49;9.90;99.90
58865;DHT22;45702;52.982;6.658;2023-04-24T04:58:14;9.90;99.90
58865;DHT22;45702;52.982;6.658;2023-04-24T05:00:40;9.80;99.90
58865;DHT22;45702;52.982;6.658;2023-04-24T05:03:06;9.80;99.90
58865;DHT22;45702;52.982;6.658;2023-04-24T05:05:32;9.80;99.90
58865;DHT22;45702;52.982;6.658;2023-04-24T05:07:58;9.80;99.90
58865;DHT22;45702;52.982;6.658;2023-04-24T05:10:23;9.80;99.90
58865;DHT22;45702;52.982;6.658;2023-04-24T05:12:49;9.80;99.90
58865;DHT22;45702;52.982;6.658;2023-04-24T05:15:15;9.80;99.90
58865;DHT22;45702;52.982;6.658;2023-04-24T05:17:40;9.80;99.90
58865;DHT22;45702;52.982;6.658;2023-04-24T05:20:06;9.80;99.90
58865;DHT22;45702;52.982;6.658;2023-04-24T05:22:33;9.80;99.90
58865;DHT22;45702;52.982;6.658;2023-04-24T05:24:59;9.80;99.90
58865;DHT22;45702;52.982;6.658;2023-04-24T05:27:24;9.80;99.90
58865;DHT22;45702;52.982;6.658;2023-04-24T05:29:50;9.80;99.90
58865;DHT22;45702;52.982;6.658;2023-04-24T05:32:16;9.80;99.90
58865;DHT22;45702;52.982;6.658;2023-04-24T05:34:42;9.80;99.90
58865;DHT22;45702;52.982;6.658;2023-04-24T05:37:07;9.80;99.90
58865;DHT22;45702;52.982;6.658;2023-04-24T05:39:35;9.80;99.90
58865;DHT22;45702;52.982;6.658;2023-04-24T05:42:01;9.70;99.90
58865;DHT22;45702;52.982;6.658;2023-04-24T05:44:27;9.80;99.90
58865;DHT22;45702;52.982;6.658;2023-04-24T05:46:53;9.70;99.90
58865;DHT22;45702;52.982;6.658;2023-04-24T05:49:20;9.70;99.90
58865;DHT22;45702;52.982;6.658;2023-04-24T05:51:46;9.70;99.90
58865;DHT22;45702;52.982;6.658;2023-04-24T05:54:11;9.70;99.90
58865;DHT22;45702;52.982;6.658;2023-04-24T05:56:38;9.70;99.90
58865;DHT22;45702;52.982;6.658;2023-04-24T05:59:03;9.70;99.90
58865;DHT22;45702;52.982;6.658;2023-04-24T06:01:29;9.70;99.90
58865;DHT22;45702;52.982;6.658;2023-04-24T06:03:55;9.70;99.90
58865;DHT22;45702;52.982;6.658;2023-04-24T06:06:21;9.70;99.90
58865;DHT22;45702;52.982;6.658;2023-04-24T06:08:46;9.70;99.90
58865;DHT22;45702;52.982;6.658;2023-04-24T06:11:12;9.70;99.90
58865;DHT22;45702;52.982;6.658;2023-04-24T06:13:38;9.70;99.90
58865;DHT22;45702;52.982;6.658;2023-04-24T06:16:04;9.80;99.90
58865;DHT22;45702;52.982;6.658;2023-04-24T06:18:29;9.80;99.90
58865;DHT22;45702;52.982;6.658;2023-04-24T06:20:56;9.80;99.90
58865;DHT22;45702;52.982;6.658;2023-04-24T06:23:21;9.90;99.90
58865;DHT22;45702;52.982;6.658;2023-04-24T06:25:47;9.90;99.90
58865;DHT22;45702;52.982;6.658;2023-04-24T06:28:13;9.90;99.90
58865;DHT22;45702;52.982;6.658;2023-04-24T06:30:38;10.00;99.90
58865;DHT22;45702;52.982;6.658;2023-04-24T06:33:04;10.00;99.90
58865;DHT22;45702;52.982;6.658;2023-04-24T06:35:29;10.00;99.90
58865;DHT22;45702;52.982;6.658;2023-04-24T06:37:55;10.00;99.90
58865;DHT22;45702;52.982;6.658;2023-04-24T06:40:22;10.00;99.90
58865;DHT22;45702;52.982;6.658;2023-04-24T06:42:47;10.00;99.90
58865;DHT22;45702;52.982;6.658;2023-04-24T06:45:13;10.00;99.90
58865;DHT22;45702;52.982;6.658;2023-04-24T06:47:39;10.10;99.90
58865;DHT22;45702;52.982;6.658;2023-04-24T06:50:05;10.10;99.90
58865;DHT22;45702;52.982;6.658;2023-04-24T06:52:31;10.10;99.90
58865;DHT22;45702;52.982;6.658;2023-04-24T06:55:04;10.20;99.90
58865;DHT22;45702;52.982;6.658;2023-04-24T06:57:30;10.20;99.90
58865;DHT22;45702;52.982;6.658;2023-04-24T06:59:56;10.20;99.90
58865;DHT22;45702;52.982;6.658;2023-04-24T07:02:22;10.30;99.90
58865;DHT22;45702;52.982;6.658;2023-04-24T07:04:48;10.30;99.90
58865;DHT22;45702;52.982;6.658;2023-04-24T07:07:13;10.30;99.90
58865;DHT22;45702;52.982;6.658;2023-04-24T07:09:40;10.40;99.90
58865;DHT22;45702;52.982;6.658;2023-04-24T07:12:08;10.40;99.90
58865;DHT22;45702;52.982;6.658;2023-04-24T07:14:34;10.40;99.90
58865;DHT22;45702;52.982;6.658;2023-04-24T07:17:00;10.40;99.90
58865;DHT22;45702;52.982;6.658;2023-04-24T07:19:26;10.50;99.90
58865;DHT22;45702;52.982;6.658;2023-04-24T07:21:52;10.50;99.90
58865;DHT22;45702;52.982;6.658;2023-04-24T07:24:19;10.50;99.90
58865;DHT22;45702;52.982;6.658;2023-04-24T07:26:46;10.50;99.90
58865;DHT22;45702;52.982;6.658;2023-04-24T07:29:17;10.50;99.90
58865;DHT22;45702;52.982;6.658;2023-04-24T07:31:43;10.50;99.90
58865;DHT22;45702;52.982;6.658;2023-04-24T07:34:09;10.50;99.90
58865;DHT22;45702;52.982;6.658;2023-04-24T07:36:35;10.50;99.90
58865;DHT22;45702;52.982;6.658;2023-04-24T07:39:01;10.50;99.90
58865;DHT22;45702;52.982;6.658;2023-04-24T07:41:26;10.50;99.90
58865;DHT22;45702;52.982;6.658;2023-04-24T07:43:53;10.50;99.90
58865;DHT22;45702;52.982;6.658;2023-04-24T07:46:19;10.50;99.90
58865;DHT22;45702;52.982;6.658;2023-04-24T07:48:45;10.50;99.90
58865;DHT22;45702;52.982;6.658;2023-04-24T07:51:14;10.50;99.90
58865;DHT22;45702;52.982;6.658;2023-04-24T07:53:40;10.40;99.90
58865;DHT22;45702;52.982;6.658;2023-04-24T07:56:06;10.50;99.90
58865;DHT22;45702;52.982;6.658;2023-04-24T07:58:31;10.40;99.90
58865;DHT22;45702;52.982;6.658;2023-04-24T08:00:57;10.40;99.90
58865;DHT22;45702;52.982;6.658;2023-04-24T08:03:23;10.30;99.90
58865;DHT22;45702;52.982;6.658;2023-04-24T08:05:49;10.30;99.90
58865;DHT22;45702;52.982;6.658;2023-04-24T08:08:16;10.30;99.90
58865;DHT22;45702;52.982;6.658;2023-04-24T08:10:42;10.30;99.90
58865;DHT22;45702;52.982;6.658;2023-04-24T08:13:08;10.30;99.90
58865;DHT22;45702;52.982;6.658;2023-04-24T08:15:33;10.20;99.90
58865;DHT22;45702;52.982;6.658;2023-04-24T08:17:59;10.20;99.90
58865;DHT22;45702;52.982;6.658;2023-04-24T08:20:25;10.20;99.90
58865;DHT22;45702;52.982;6.658;2023-04-24T08:22:50;10.20;99.90
58865;DHT22;45702;52.982;6.658;2023-04-24T08:25:16;10.10;99.90
58865;DHT22;45702;52.982;6.658;2023-04-24T08:27:43;10.10;99.90
58865;DHT22;45702;52.982;6.658;2023-04-24T08:30:09;10.10;99.90
58865;DHT22;45702;52.982;6.658;2023-04-24T08:32:35;10.00;99.90
58865;DHT22;45702;52.982;6.658;2023-04-24T08:35:01;10.00;99.90
58865;DHT22;45702;52.982;6.658;2023-04-24T08:37:28;10.00;99.90
58865;DHT22;45702;52.982;6.658;2023-04-24T08:39:54;10.00;99.90
58865;DHT22;45702;52.982;6.658;2023-04-24T08:42:20;10.00;99.90
58865;DHT22;45702;52.982;6.658;2023-04-24T08:44:47;10.00;99.90
58865;DHT22;45702;52.982;6.658;2023-04-24T08:47:15;9.90;99.90
58865;DHT22;45702;52.982;6.658;2023-04-24T08:49:41;9.90;99.90
58865;DHT22;45702;52.982;6.658;2023-04-24T08:52:07;9.80;99.90
58865;DHT22;45702;52.982;6.658;2023-04-24T08:54:36;9.80;99.90
58865;DHT22;45702;52.982;6.658;2023-04-24T08:57:02;9.80;99.90
58865;DHT22;45702;52.982;6.658;2023-04-24T08:59:29;9.70;99.90
58865;DHT22;45702;52.982;6.658;2023-04-24T09:01:56;9.70;99.90
58865;DHT22;45702;52.982;6.658;2023-04-24T09:04:23;9.70;99.90
58865;DHT22;45702;52.982;6.658;2023-04-24T09:06:55;9.60;99.90
58865;DHT22;45702;52.982;6.658;2023-04-24T09:09:22;9.60;99.90
58865;DHT22;45702;52.982;6.658;2023-04-24T09:11:49;9.50;99.90
58865;DHT22;45702;52.982;6.658;2023-04-24T09:14:16;9.50;99.90
58865;DHT22;45702;52.982;6.658;2023-04-24T09:16:42;9.50;99.90
58865;DHT22;45702;52.982;6.658;2023-04-24T09:19:08;9.40;99.90
58865;DHT22;45702;52.982;6.658;2023-04-24T09:21:35;9.40;99.90
58865;DHT22;45702;52.982;6.658;2023-04-24T09:24:05;9.40;99.90
58865;DHT22;45702;52.982;6.658;2023-04-24T09:26:35;9.30;99.90
58865;DHT22;45702;52.982;6.658;2023-04-24T09:29:01;9.30;99.90
58865;DHT22;45702;52.982;6.658;2023-04-24T09:31:29;9.30;99.90
58865;DHT22;45702;52.982;6.658;2023-04-24T09:36:33;9.30;99.90
58865;DHT22;45702;52.982;6.658;2023-04-24T09:39:00;9.30;99.90
58865;DHT22;45702;52.982;6.658;2023-04-24T09:41:27;9.30;99.90
58865;DHT22;45702;52.982;6.658;2023-04-24T09:43:55;9.30;99.90
58865;DHT22;45702;52.982;6.658;2023-04-24T09:46:21;9.40;99.90
58865;DHT22;45702;52.982;6.658;2023-04-24T09:48:47;9.30;99.90
58865;DHT22;45702;52.982;6.658;2023-04-24T09:51:13;9.40;99.90
58865;DHT22;45702;52.982;6.658;2023-04-24T09:53:46;9.40;99.90
58865;DHT22;45702;52.982;6.658;2023-04-24T09:56:12;9.40;99.90
58865;DHT22;45702;52.982;6.658;2023-04-24T09:58:40;9.40;99.90
58865;DHT22;45702;52.982;6.658;2023-04-24T10:01:06;9.40;99.90
58865;DHT22;45702;52.982;6.658;2023-04-24T10:03:33;9.40;99.90
58865;DHT22;45702;52.982;6.658;2023-04-24T10:06:03;9.40;99.90
58865;DHT22;45702;52.982;6.658;2023-04-24T10:08:35;9.40;99.90
58865;DHT22;45702;52.982;6.658;2023-04-24T10:11:01;9.40;99.90
58865;DHT22;45702;52.982;6.658;2023-04-24T10:13:28;9.50;99.90
58865;DHT22;45702;52.982;6.658;2023-04-24T10:15:54;9.40;99.90
58865;DHT22;45702;52.982;6.658;2023-04-24T10:18:21;9.40;99.90
58865;DHT22;45702;52.982;6.658;2023-04-24T10:20:48;9.40;99.90
58865;DHT22;45702;52.982;6.658;2023-04-24T10:23:14;9.40;99.90
58865;DHT22;45702;52.982;6.658;2023-04-24T10:25:40;9.40;99.90
58865;DHT22;45702;52.982;6.658;2023-04-24T10:28:06;9.50;99.90
58865;DHT22;45702;52.982;6.658;2023-04-24T10:30:33;9.50;99.90
58865;DHT22;45702;52.982;6.658;2023-04-24T10:33:04;9.50;99.90
58865;DHT22;45702;52.982;6.658;2023-04-24T10:35:31;9.50;99.90
58865;DHT22;45702;52.982;6.658;2023-04-24T10:38:02;9.50;99.90
58865;DHT22;45702;52.982;6.658;2023-04-24T10:40:34;9.60;99.90
58865;DHT22;45702;52.982;6.658;2023-04-24T10:43:03;9.60;99.90
58865;DHT22;45702;52.982;6.658;2023-04-24T10:45:31;9.60;99.90
58865;DHT22;45702;52.982;6.658;2023-04-24T10:48:02;9.60;99.90
58865;DHT22;45702;52.982;6.658;2023-04-24T10:50:52;9.60;99.90
58865;DHT22;45702;52.982;6.658;2023-04-24T10:53:19;9.60;99.90
58865;DHT22;45702;52.982;6.658;2023-04-24T10:56:08;9.60;99.90
58865;DHT22;45702;52.982;6.658;2023-04-24T10:58:38;9.60;99.90
58865;DHT22;45702;52.982;6.658;2023-04-24T11:01:05;9.60;99.90
58865;DHT22;45702;52.982;6.658;2023-04-24T11:03:33;9.60;99.90
58865;DHT22;45702;52.982;6.658;2023-04-24T11:06:07;9.60;99.90
58865;DHT22;45702;52.982;6.658;2023-04-24T11:08:44;9.70;99.90
58865;DHT22;45702;52.982;6.658;2023-04-24T11:11:14;9.70;99.90
58865;DHT22;45702;52.982;6.658;2023-04-24T11:16:32;9.80;99.90
58865;DHT22;45702;52.982;6.658;2023-04-24T11:21:46;10.00;99.90
58865;DHT22;45702;52.982;6.658;2023-04-24T11:29:44;10.10;99.90
58865;DHT22;45702;52.982;6.658;2023-04-24T11:32:40;10.00;99.90
58865;DHT22;45702;52.982;6.658;2023-04-24T11:35:13;10.00;99.90
58865;DHT22;45702;52.982;6.658;2023-04-24T11:37:40;9.90;99.90
58865;DHT22;45702;52.982;6.658;2023-04-24T11:40:10;9.90;99.90
58865;DHT22;45702;52.982;6.658;2023-04-24T11:42:41;9.80;99.90
58865;DHT22;45702;52.982;6.658;2023-04-24T11:45:18;9.90;99.90
58865;DHT22;45702;52.982;6.658;2023-04-24T11:47:45;9.90;99.90
58865;DHT22;45702;52.982;6.658;2023-04-24T11:50:13;10.00;99.90
58865;DHT22;45702;52.982;6.658;2023-04-24T11:52:40;10.10;99.90
58865;DHT22;45702;52.982;6.658;2023-04-24T11:55:12;10.10;99.90
58865;DHT22;45702;52.982;6.658;2023-04-24T11:57:53;10.10;99.90
58865;DHT22;45702;52.982;6.658;2023-04-24T12:00:22;10.10;99.90
58865;DHT22;45702;52.982;6.658;2023-04-24T12:02:49;10.10;99.90
58865;DHT22;45702;52.982;6.658;2023-04-24T12:05:28;10.10;99.90
58865;DHT22;45702;52.982;6.658;2023-04-24T12:07:56;10.00;99.90
58865;DHT22;45702;52.982;6.658;2023-04-24T12:10:23;10.00;99.90
58865;DHT22;45702;52.982;6.658;2023-04-24T12:12:50;9.90;99.90
58865;DHT22;45702;52.982;6.658;2023-04-24T12:15:18;9.80;99.90
58865;DHT22;45702;52.982;6.658;2023-04-24T12:17:44;9.80;99.90
58865;DHT22;45702;52.982;6.658;2023-04-24T12:20:10;9.70;99.90
58865;DHT22;45702;52.982;6.658;2023-04-24T12:22:55;9.70;99.90
58865;DHT22;45702;52.982;6.658;2023-04-24T12:25:27;9.70;99.90
58865;DHT22;45702;52.982;6.658;2023-04-24T12:27:55;9.70;99.90
58865;DHT22;45702;52.982;6.658;2023-04-24T12:30:21;9.70;99.90
58865;DHT22;45702;52.982;6.658;2023-04-24T12:32:51;9.80;99.90
58865;DHT22;45702;52.982;6.658;2023-04-24T12:35:20;9.80;99.90
58865;DHT22;45702;52.982;6.658;2023-04-24T12:37:46;9.90;99.90
58865;DHT22;45702;52.982;6.658;2023-04-24T12:40:13;9.90;99.90
58865;DHT22;45702;52.982;6.658;2023-04-24T12:42:48;10.00;99.90
58865;DHT22;45702;52.982;6.658;2023-04-24T12:45:15;10.00;99.90
58865;DHT22;45702;52.982;6.658;2023-04-24T12:47:42;10.00;99.90
58865;DHT22;45702;52.982;6.658;2023-04-24T12:50:10;10.00;99.90
58865;DHT22;45702;52.982;6.658;2023-04-24T12:52:36;10.10;99.90
58865;DHT22;45702;52.982;6.658;2023-04-24T12:55:03;10.10;99.90
58865;DHT22;45702;52.982;6.658;2023-04-24T12:57:30;10.20;99.90
58865;DHT22;45702;52.982;6.658;2023-04-24T12:59:57;10.20;99.90
58865;DHT22;45702;52.982;6.658;2023-04-24T13:02:24;10.20;99.90
58865;DHT22;45702;52.982;6.658;2023-04-24T13:04:51;10.10;99.90
58865;DHT22;45702;52.982;6.658;2023-04-24T13:07:17;10.10;99.90
58865;DHT22;45702;52.982;6.658;2023-04-24T13:09:44;10.10;99.90
58865;DHT22;45702;52.982;6.658;2023-04-24T13:12:10;10.00;99.90
58865;DHT22;45702;52.982;6.658;2023-04-24T13:14:37;10.00;99.90
58865;DHT22;45702;52.982;6.658;2023-04-24T13:17:03;10.00;99.90
58865;DHT22;45702;52.982;6.658;2023-04-24T13:19:29;9.90;99.90
58865;DHT22;45702;52.982;6.658;2023-04-24T13:21:56;9.90;99.90
58865;DHT22;45702;52.982;6.658;2023-04-24T13:24:23;9.90;99.90
58865;DHT22;45702;52.982;6.658;2023-04-24T13:26:51;10.00;99.90
58865;DHT22;45702;52.982;6.658;2023-04-24T13:29:17;10.00;99.90
58865;DHT22;45702;52.982;6.658;2023-04-24T13:31:43;10.10;99.90
58865;DHT22;45702;52.982;6.658;2023-04-24T13:34:09;10.10;99.90
58865;DHT22;45702;52.982;6.658;2023-04-24T13:36:34;10.10;99.90
58865;DHT22;45702;52.982;6.658;2023-04-24T13:39:00;10.10;99.90
58865;DHT22;45702;52.982;6.658;2023-04-24T13:41:26;10.10;99.90
58865;DHT22;45702;52.982;6.658;2023-04-24T13:43:52;10.00;99.90
58865;DHT22;45702;52.982;6.658;2023-04-24T13:46:18;10.10;99.90
58865;DHT22;45702;52.982;6.658;2023-04-24T13:48:43;10.00;99.90
58865;DHT22;45702;52.982;6.658;2023-04-24T13:51:09;10.10;99.90
58865;DHT22;45702;52.982;6.658;2023-04-24T13:53:35;10.10;99.90
58865;DHT22;45702;52.982;6.658;2023-04-24T13:56:04;10.10;99.90
58865;DHT22;45702;52.982;6.658;2023-04-24T13:58:30;10.20;99.90
58865;DHT22;45702;52.982;6.658;2023-04-24T14:00:55;10.20;99.90
58865;DHT22;45702;52.982;6.658;2023-04-24T14:03:21;10.30;99.90
58865;DHT22;45702;52.982;6.658;2023-04-24T14:05:47;10.30;99.90
58865;DHT22;45702;52.982;6.658;2023-04-24T14:08:12;10.40;99.90
58865;DHT22;45702;52.982;6.658;2023-04-24T14:10:38;10.40;99.40
58865;DHT22;45702;52.982;6.658;2023-04-24T14:13:04;10.30;99.40
58865;DHT22;45702;52.982;6.658;2023-04-24T14:15:31;10.30;99.40
58865;DHT22;45702;52.982;6.658;2023-04-24T14:17:56;10.20;99.10
58865;DHT22;45702;52.982;6.658;2023-04-24T14:20:23;10.20;99.40
58865;DHT22;45702;52.982;6.658;2023-04-24T14:22:48;10.10;99.00
58865;DHT22;45702;52.982;6.658;2023-04-24T14:25:14;10.10;99.40
58865;DHT22;45702;52.982;6.658;2023-04-24T14:27:40;10.00;99.70
58865;DHT22;45702;52.982;6.658;2023-04-24T14:30:07;10.00;99.90
58865;DHT22;45702;52.982;6.658;2023-04-24T14:32:33;9.90;99.90
58865;DHT22;45702;52.982;6.658;2023-04-24T14:34:58;10.00;99.90
58865;DHT22;45702;52.982;6.658;2023-04-24T14:37:24;9.90;99.90
58865;DHT22;45702;52.982;6.658;2023-04-24T14:39:50;9.90;99.90
58865;DHT22;45702;52.982;6.658;2023-04-24T14:42:15;9.90;99.90
58865;DHT22;45702;52.982;6.658;2023-04-24T14:44:42;9.90;99.90
58865;DHT22;45702;52.982;6.658;2023-04-24T14:47:08;9.80;99.90
58865;DHT22;45702;52.982;6.658;2023-04-24T14:49:34;9.80;99.90
58865;DHT22;45702;52.982;6.658;2023-04-24T14:51:59;9.80;99.90
58865;DHT22;45702;52.982;6.658;2023-04-24T14:54:25;9.80;99.90
58865;DHT22;45702;52.982;6.658;2023-04-24T14:56:51;9.70;99.90
58865;DHT22;45702;52.982;6.658;2023-04-24T14:59:16;9.70;99.90
58865;DHT22;45702;52.982;6.658;2023-04-24T15:01:42;9.70;99.90
58865;DHT22;45702;52.982;6.658;2023-04-24T15:04:08;9.60;99.90
58865;DHT22;45702;52.982;6.658;2023-04-24T15:06:34;9.60;99.90
58865;DHT22;45702;52.982;6.658;2023-04-24T15:09:00;9.60;99.90
58865;DHT22;45702;52.982;6.658;2023-04-24T15:11:25;9.60;99.90
58865;DHT22;45702;52.982;6.658;2023-04-24T15:13:51;9.60;99.90
58865;DHT22;45702;52.982;6.658;2023-04-24T15:16:17;9.60;99.90
58865;DHT22;45702;52.982;6.658;2023-04-24T15:18:42;9.60;99.90
58865;DHT22;45702;52.982;6.658;2023-04-24T15:23:35;9.60;99.90
58865;DHT22;45702;52.982;6.658;2023-04-24T15:26:00;9.50;99.90
58865;DHT22;45702;52.982;6.658;2023-04-24T15:28:27;9.50;99.90
58865;DHT22;45702;52.982;6.658;2023-04-24T15:52:50;9.60;99.90
58865;DHT22;45702;52.982;6.658;2023-04-24T16:00:08;9.50;99.90
58865;DHT22;45702;52.982;6.658;2023-04-24T16:09:53;9.50;99.90
58865;DHT22;45702;52.982;6.658;2023-04-24T16:12:19;9.70;99.90
58865;DHT22;45702;52.982;6.658;2023-04-24T16:22:03;9.60;99.90
58865;DHT22;45702;52.982;6.658;2023-04-24T16:29:22;9.60;99.90
58865;DHT22;45702;52.982;6.658;2023-04-24T16:34:13;9.60;99.90
58865;DHT22;45702;52.982;6.658;2023-04-24T16:41:31;9.70;99.90
58865;DHT22;45702;52.982;6.658;2023-04-24T16:43:57;9.60;99.90